Masuura, Japan

9:18 AM JST on October 14, 2019 (GMT +0900)
Near Abashiri River | | Change Station

Elev 0 ft 44.02 °N, 144.27 °E | Updated 32 seconds ago

Partly Cloudy
Partly Cloudy
50.2 °F
Feels Like 50.2 °F
N
1.1
Wind Variable Wind from WNW
Gusts 0.0 mph

Today
High -- | Low -- °F
--% Chance of Precip.
Yesterday
High -- | Low -- °F
Precip. -- in
Pressure 30.24 in
Visibility -9999.0 miles
Clouds
Dew Point 34 °F
Humidity 54%
Rainfall 0.00 in
Snow Depth Not available.
5:35 AM 4:42 PM
Full, 100% visible
METAR RJCM 140000Z 20005KT CAVOK 06/01 Q1024
Pressure 30.24 in
Visibility -9999.0 miles
Clouds
Dew Point 34 °F
Humidity 54%
Rainfall 0.00 in
Snow Depth Not available.
5:35 AM 4:42 PM
Full, 100% visible
METAR RJCM 140000Z 20005KT CAVOK 06/01 Q1024

Get Severe Weather Alerts

Thanks for signing up!

Be on the lookout for a verification email in your inbox.

You'll start receiving the daily forecast at 6 AM.

×

10-Day Weather Forecast

No radar image for this location.
×

Almanac

Astronomy

Oct. 14, 2019 Rise Set
Actual Time
Civil Twilight
Nautical Twilight
Astronomical Twilight
Moon
Length of Visible Light
Length of Day
Tomorrow will be .
, % of the Moon is Illuminated

Today's Extremes

Country Highs Country Lows

Community

WunderPhotos

Category 6

Welcome to Category 6. This is the collective home for Weather Underground's featured writeups by Dr. Jeff Masters (right), Bob Henson (left), Chris Burt, and other regular contributors.

Nearby

Air Quality

  Air Quality AQ Index Pollutant
Not available.

Snow Depth

Station Depth Elevation

Earthquake Activity

City Distance Mag. Time & Date
Minimum magnitude displayed is 2.5.

Coastal Water Temperatures

Place Temperature

Stations

Nearby Weather Stations

Station Location Temp. Windchill Dew Point Humidity Wind Precip. Elev Updated Type